Portada
METAR-TAF:

METAR-TAF

Aeroports :

Urmia, Iran

latitud: 37-32N, longitud: 045-05E, altitud: 1297 m

Observació

L'informe es va fer fa 26 minuts, a les 22:00 UTC
Vent 4 kt del Nord/Nord-Oest
Temperatura -1°C
Humitat 74%
Pressió 1012 hPa
Visibilitat: 8000 m
Escasses núvols a una alçada de 3500 ft

METAR: OITR 252200Z 33004KT 8000 FEW035 M01/M05 Q1012

Hora: 01:56 (22:26 UTC)

Pronòstic

L'informe es va fer fa 4 hores i 56 minuts, a les 17:30 UTC
Pronòstic vàlid del 25 a les 18 UTC al 26 a les 24 UTC
Vent 8 kt del Nord/Nord-Est
Visibilitat: 8000 m
Escasses núvols a una alçada de 3500 ft
Temporalment
l' 25 a les 21 UTC al 26 a les 03 UTC
Visibilitat: 4000 m
boirina

TAF: OITR 251730Z 2518/2624 02008KT 8000 FEW035 TEMPO 2521/2603 4000 BR

Observacions i pronòstics meteorològics de més de 4000 aeroports (METAR i TAF).

Les estacions disponibles són els punts grocs i vermells al mapa.

Posi el ratolí al punt desitjat per veure el nom de l'estació.

Feu clic per veure les observacions i els pronòstics meteorològics.

Per canviar el mapa: feu clic els botons verds amb una creu de color negre per apropar; al botó verd amb un guió per allunyar la imatge; o en les fletxes verdes per a mapes adjacents.


METAR-TAF: